CSN331 ZGGG-EDDF
Flight info
| Callsign | CSN331 |
|---|---|
| Flight time | N/A |
| Altitude | 36100 |
| Route | MIKIP A461 BUBDA W56 REBIS/K0930S1070 W56 VEXAN/K0915S1130 W56 OBMEP/K0913S1100 B208 LAXAG/K0895S1160 B208 NIXAL Y746 DARNO/K0900F380 P982 TR A308 ABK R104 BA/K0904F400 R229 XV B228 LITUN N869 UNISO L870 RANVA/N0488F400 L870 RESMO DCT SOKVA DCT GARSO DCT RONUN/K0913F400 DCT KUNER/N0493F400 P31 BEZMI DCT ALUKA DCT POVEL DCT RIMET/N0499F310 T157 KOKEB/N0455F230 T157 KERAX |
| Aircraft | A359/H-SDE2E3GHIJ3J4J5LM1ORWXY/LB1D1 |
Departure
| Time | 2026-05-08 03:18 |
|---|---|
| Airport | Guangzhou Baiyun International Airport (ZGGG) |
Arrival
| Time | N/A |
|---|---|
| Airport | Frankfurt Main Airport (EDDF) |
| Time | Latitude | Longitude | Altitude | Speed | Heading |
|---|---|---|---|---|---|
| 2026-05-08 03:03 | 23.38308 | 113.30184 | 65 ft | 0 kts | 324° |
| 2026-05-08 03:07 | 23.38297 | 113.30193 | 55 ft | 2 kts | 324° |
| 2026-05-08 03:08 | 23.38284 | 113.30204 | 58 ft | 2 kts | 324° |
| 2026-05-08 03:08 | 23.38270 | 113.30214 | 55 ft | 2 kts | 323° |
| 2026-05-08 03:08 | 23.38257 | 113.30225 | 55 ft | 2 kts | 323° |
| 2026-05-08 03:08 | 23.38244 | 113.30235 | 55 ft | 2 kts | 322° |
| 2026-05-08 03:09 | 23.38232 | 113.30247 | 55 ft | 2 kts | 297° |
| 2026-05-08 03:09 | 23.38227 | 113.30264 | 55 ft | 2 kts | 281° |
| 2026-05-08 03:09 | 23.38225 | 113.30282 | 55 ft | 2 kts | 257° |
| 2026-05-08 03:09 | 23.38233 | 113.30297 | 55 ft | 2 kts | 231° |
| 2026-05-08 03:10 | 23.38244 | 113.30311 | 55 ft | 2 kts | 219° |
| 2026-05-08 03:10 | 23.38258 | 113.30319 | 55 ft | 2 kts | 190° |
| 2026-05-08 03:10 | 23.38272 | 113.30322 | 55 ft | 1 kts | 192° |
| 2026-05-08 03:10 | 23.38273 | 113.30322 | 55 ft | 0 kts | 193° |
| 2026-05-08 03:12 | 23.38266 | 113.30320 | 55 ft | 5 kts | 194° |
| 2026-05-08 03:13 | 23.38193 | 113.30300 | 53 ft | 17 kts | 194° |
| 2026-05-08 03:13 | 23.38047 | 113.30260 | 59 ft | 26 kts | 194° |
| 2026-05-08 03:13 | 23.37878 | 113.30218 | 55 ft | 20 kts | 192° |
| 2026-05-08 03:13 | 23.37745 | 113.30198 | 59 ft | 11 kts | 159° |
| 2026-05-08 03:14 | 23.37702 | 113.30221 | 55 ft | 9 kts | 153° |
| 2026-05-08 03:14 | 23.37657 | 113.30253 | 62 ft | 6 kts | 130° |
| 2026-05-08 03:14 | 23.37635 | 113.30307 | 60 ft | 13 kts | 106° |
| 2026-05-08 03:14 | 23.37614 | 113.30391 | 62 ft | 10 kts | 103° |
| 2026-05-08 03:15 | 23.37601 | 113.30457 | 58 ft | 8 kts | 102° |
| 2026-05-08 03:15 | 23.37591 | 113.30504 | 58 ft | 5 kts | 102° |
| 2026-05-08 03:15 | 23.37578 | 113.30565 | 61 ft | 11 kts | 104° |
| 2026-05-08 03:15 | 23.37558 | 113.30640 | 58 ft | 10 kts | 105° |
| 2026-05-08 03:16 | 23.37544 | 113.30703 | 63 ft | 7 kts | 103° |
| 2026-05-08 03:16 | 23.37533 | 113.30752 | 59 ft | 6 kts | 103° |
| 2026-05-08 03:16 | 23.37522 | 113.30800 | 56 ft | 10 kts | 103° |
| 2026-05-08 03:16 | 23.37508 | 113.30884 | 61 ft | 7 kts | 82° |
| 2026-05-08 03:17 | 23.37531 | 113.30912 | 59 ft | 4 kts | 37° |
| 2026-05-08 03:17 | 23.37560 | 113.30928 | 56 ft | 12 kts | 16° |
| 2026-05-08 03:17 | 23.37853 | 113.31009 | 57 ft | 73 kts | 15° |
| 2026-05-08 03:17 | 23.38523 | 113.31192 | 56 ft | 125 kts | 13° |
| 2026-05-08 03:18 | 23.39520 | 113.31461 | 62 ft | 169 kts | 14° |
| 2026-05-08 03:18 | 23.40651 | 113.31747 | 676 ft | 166 kts | 13° |
| 2026-05-08 03:18 | 23.41792 | 113.32037 | 1327 ft | 170 kts | 12° |
| 2026-05-08 03:18 | 23.43009 | 113.32345 | 1810 ft | 188 kts | 14° |
| 2026-05-08 03:19 | 23.44349 | 113.32693 | 2193 ft | 209 kts | 14° |
| 2026-05-08 03:19 | 23.45817 | 113.33091 | 2666 ft | 222 kts | 15° |
| 2026-05-08 03:19 | 23.47349 | 113.33490 | 3311 ft | 230 kts | 15° |
| 2026-05-08 03:19 | 23.48920 | 113.33903 | 4103 ft | 233 kts | 16° |
| 2026-05-08 03:20 | 23.50513 | 113.34329 | 4693 ft | 239 kts | 16° |
| 2026-05-08 03:20 | 23.52129 | 113.34761 | 5133 ft | 243 kts | 16° |
| 2026-05-08 03:20 | 23.53756 | 113.35188 | 5971 ft | 240 kts | 14° |
| 2026-05-08 03:20 | 23.55427 | 113.35603 | 6508 ft | 250 kts | 13° |
| 2026-05-08 03:21 | 23.57133 | 113.36035 | 7163 ft | 253 kts | 11° |
| 2026-05-08 03:21 | 23.58892 | 113.36263 | 7716 ft | 256 kts | 2° |
| 2026-05-08 03:21 | 23.60664 | 113.36347 | 8260 ft | 258 kts | 360° |
| 2026-05-08 03:21 | 23.62471 | 113.36425 | 8825 ft | 261 kts | 360° |
| 2026-05-08 03:22 | 23.64304 | 113.36509 | 9349 ft | 265 kts | 0° |
| 2026-05-08 03:22 | 23.66170 | 113.36597 | 9906 ft | 269 kts | 0° |
| 2026-05-08 03:22 | 23.68046 | 113.36716 | 10434 ft | 272 kts | 2° |
| 2026-05-08 03:22 | 23.69938 | 113.36889 | 10955 ft | 274 kts | 2° |
| 2026-05-08 03:23 | 23.71825 | 113.37061 | 11507 ft | 276 kts | 2° |
| 2026-05-08 03:23 | 23.73753 | 113.37232 | 12069 ft | 279 kts | 2° |
| 2026-05-08 03:23 | 23.75695 | 113.37402 | 12592 ft | 281 kts | 2° |
| 2026-05-08 03:23 | 23.77660 | 113.37572 | 13117 ft | 283 kts | 1° |
| 2026-05-08 03:24 | 23.79637 | 113.37750 | 13528 ft | 292 kts | 1° |
| 2026-05-08 03:24 | 23.81705 | 113.37946 | 13759 ft | 305 kts | 1° |
| 2026-05-08 03:24 | 23.83873 | 113.38151 | 14003 ft | 317 kts | 1° |
| 2026-05-08 03:24 | 23.86084 | 113.38360 | 14253 ft | 329 kts | 2° |
| 2026-05-08 03:25 | 23.88405 | 113.38581 | 14492 ft | 340 kts | 2° |
| 2026-05-08 03:25 | 23.90796 | 113.38808 | 14741 ft | 350 kts | 2° |
| 2026-05-08 03:25 | 23.93266 | 113.39043 | 14979 ft | 360 kts | 2° |
| 2026-05-08 03:25 | 23.95793 | 113.39284 | 15211 ft | 370 kts | 2° |
| 2026-05-08 03:26 | 23.98392 | 113.39535 | 15439 ft | 378 kts | 2° |
| 2026-05-08 03:26 | 24.01053 | 113.39787 | 15687 ft | 387 kts | 2° |
| 2026-05-08 03:26 | 24.03734 | 113.40041 | 15908 ft | 395 kts | 2° |
| 2026-05-08 03:26 | 24.06504 | 113.40304 | 16122 ft | 402 kts | 2° |
| 2026-05-08 03:27 | 24.09324 | 113.40573 | 16357 ft | 408 kts | 2° |
| 2026-05-08 03:27 | 24.12167 | 113.40844 | 16711 ft | 411 kts | 2° |
| 2026-05-08 03:27 | 24.15026 | 113.41117 | 17057 ft | 413 kts | 2° |
| 2026-05-08 03:27 | 24.17898 | 113.41392 | 17395 ft | 416 kts | 2° |
| 2026-05-08 03:28 | 24.20761 | 113.41651 | 17729 ft | 417 kts | 0° |
| 2026-05-08 03:28 | 24.23675 | 113.41751 | 18074 ft | 419 kts | 358° |
| 2026-05-08 03:28 | 24.26607 | 113.41806 | 18414 ft | 421 kts | 358° |
| 2026-05-08 03:28 | 24.29548 | 113.41880 | 18717 ft | 423 kts | 358° |
| 2026-05-08 03:29 | 24.32501 | 113.41964 | 19025 ft | 424 kts | 358° |
| 2026-05-08 03:29 | 24.35416 | 113.42055 | 19331 ft | 426 kts | 358° |
| 2026-05-08 03:29 | 24.38388 | 113.42151 | 19633 ft | 427 kts | 358° |
| 2026-05-08 03:29 | 24.41363 | 113.42229 | 19942 ft | 429 kts | 358° |
| 2026-05-08 03:30 | 24.47346 | 113.42380 | 20586 ft | 431 kts | 358° |
| 2026-05-08 03:30 | 24.53387 | 113.42540 | 21239 ft | 434 kts | 358° |
| 2026-05-08 03:31 | 24.59414 | 113.42707 | 21880 ft | 438 kts | 358° |
| 2026-05-08 03:31 | 24.65543 | 113.42881 | 22546 ft | 441 kts | 358° |
| 2026-05-08 03:32 | 24.68624 | 113.42966 | 22914 ft | 442 kts | 358° |
| 2026-05-08 03:32 | 24.71711 | 113.43053 | 23229 ft | 443 kts | 358° |
| 2026-05-08 03:32 | 24.74748 | 113.43140 | 23522 ft | 445 kts | 358° |
| 2026-05-08 03:32 | 24.77860 | 113.43230 | 23808 ft | 447 kts | 358° |
| 2026-05-08 03:33 | 24.80991 | 113.43319 | 24050 ft | 449 kts | 358° |
| 2026-05-08 03:33 | 24.84127 | 113.43408 | 24295 ft | 451 kts | 358° |
| 2026-05-08 03:33 | 24.87266 | 113.43498 | 24550 ft | 453 kts | 358° |
| 2026-05-08 03:33 | 24.90431 | 113.43588 | 24815 ft | 455 kts | 357° |
| 2026-05-08 03:34 | 24.93613 | 113.43679 | 25086 ft | 457 kts | 357° |
| 2026-05-08 03:34 | 24.96803 | 113.43770 | 25324 ft | 460 kts | 357° |
| 2026-05-08 03:34 | 24.99979 | 113.43860 | 25612 ft | 462 kts | 357° |
| 2026-05-08 03:34 | 25.03195 | 113.43952 | 25908 ft | 464 kts | 357° |
| 2026-05-08 03:35 | 25.06450 | 113.44045 | 26234 ft | 466 kts | 357° |
| 2026-05-08 03:35 | 25.09703 | 113.44138 | 26545 ft | 468 kts | 356° |
| 2026-05-08 03:35 | 25.12964 | 113.44231 | 26864 ft | 471 kts | 356° |
| 2026-05-08 03:35 | 25.16264 | 113.44325 | 27176 ft | 473 kts | 356° |
| 2026-05-08 03:36 | 25.19529 | 113.44419 | 27491 ft | 475 kts | 356° |
| 2026-05-08 03:36 | 25.22853 | 113.44514 | 27786 ft | 478 kts | 356° |
| 2026-05-08 03:36 | 25.26194 | 113.44609 | 28107 ft | 480 kts | 356° |
| 2026-05-08 03:36 | 25.29516 | 113.44702 | 28420 ft | 483 kts | 356° |
| 2026-05-08 03:37 | 25.32894 | 113.44795 | 28768 ft | 485 kts | 355° |
| 2026-05-08 03:37 | 25.36260 | 113.44893 | 29053 ft | 487 kts | 355° |
| 2026-05-08 03:37 | 25.39660 | 113.44993 | 29356 ft | 489 kts | 355° |
| 2026-05-08 03:37 | 25.43087 | 113.45093 | 29632 ft | 491 kts | 355° |
| 2026-05-08 03:38 | 25.46515 | 113.45194 | 29893 ft | 493 kts | 355° |
| 2026-05-08 03:38 | 25.49965 | 113.45294 | 30143 ft | 495 kts | 355° |
| 2026-05-08 03:38 | 25.53383 | 113.45392 | 30371 ft | 497 kts | 355° |
| 2026-05-08 03:38 | 25.56847 | 113.45492 | 30588 ft | 498 kts | 355° |
| 2026-05-08 03:39 | 25.60315 | 113.45592 | 30826 ft | 499 kts | 355° |
| 2026-05-08 03:39 | 25.63789 | 113.45693 | 31112 ft | 498 kts | 355° |
| 2026-05-08 03:39 | 25.67217 | 113.45793 | 31408 ft | 498 kts | 355° |
| 2026-05-08 03:39 | 25.70678 | 113.45894 | 31708 ft | 496 kts | 355° |
| 2026-05-08 03:40 | 25.74135 | 113.45996 | 32024 ft | 495 kts | 355° |
| 2026-05-08 03:40 | 25.77588 | 113.46097 | 32322 ft | 494 kts | 355° |
| 2026-05-08 03:40 | 25.81045 | 113.46197 | 32554 ft | 495 kts | 354° |
| 2026-05-08 03:40 | 25.84490 | 113.46295 | 32735 ft | 496 kts | 354° |
| 2026-05-08 03:41 | 25.87892 | 113.46392 | 33023 ft | 495 kts | 354° |
| 2026-05-08 03:41 | 25.91313 | 113.46392 | 33308 ft | 491 kts | 352° |
| 2026-05-08 03:41 | 25.94730 | 113.46256 | 33577 ft | 489 kts | 350° |
| 2026-05-08 03:41 | 25.98119 | 113.46070 | 33818 ft | 488 kts | 350° |
| 2026-05-08 03:42 | 26.01516 | 113.45880 | 34082 ft | 487 kts | 350° |
| 2026-05-08 03:42 | 26.04906 | 113.45705 | 34213 ft | 489 kts | 351° |
| 2026-05-08 03:42 | 26.08323 | 113.45547 | 34237 ft | 488 kts | 351° |
| 2026-05-08 03:43 | 26.15121 | 113.45265 | 34230 ft | 489 kts | 351° |
| 2026-05-08 03:43 | 26.21446 | 113.45041 | 34227 ft | 489 kts | 353° |
| 2026-05-08 03:44 | 26.28256 | 113.44903 | 34230 ft | 490 kts | 353° |
| 2026-05-08 03:44 | 26.35078 | 113.44719 | 34228 ft | 490 kts | 353° |
| 2026-05-08 03:45 | 26.41888 | 113.44475 | 34228 ft | 489 kts | 352° |
| 2026-05-08 03:45 | 26.48693 | 113.44210 | 34226 ft | 489 kts | 352° |
| 2026-05-08 03:46 | 26.55497 | 113.43947 | 34224 ft | 489 kts | 352° |
| 2026-05-08 03:46 | 26.62304 | 113.43684 | 34225 ft | 489 kts | 352° |
| 2026-05-08 03:47 | 26.69102 | 113.43422 | 34225 ft | 489 kts | 352° |
| 2026-05-08 03:47 | 26.75893 | 113.43160 | 34231 ft | 488 kts | 352° |
| 2026-05-08 03:48 | 26.82684 | 113.42897 | 34229 ft | 487 kts | 352° |
| 2026-05-08 03:48 | 26.89399 | 113.42637 | 34229 ft | 489 kts | 352° |
| 2026-05-08 03:49 | 26.96212 | 113.42376 | 34217 ft | 489 kts | 352° |
| 2026-05-08 03:49 | 27.03012 | 113.42115 | 34233 ft | 489 kts | 352° |
| 2026-05-08 03:50 | 27.09752 | 113.41854 | 34223 ft | 489 kts | 352° |
| 2026-05-08 03:50 | 27.16511 | 113.41593 | 34227 ft | 489 kts | 352° |
| 2026-05-08 03:51 | 27.23330 | 113.41329 | 34230 ft | 489 kts | 351° |
| 2026-05-08 03:51 | 27.30122 | 113.41066 | 34229 ft | 489 kts | 351° |
| 2026-05-08 03:52 | 27.36922 | 113.40884 | 34232 ft | 491 kts | 354° |
| 2026-05-08 03:52 | 27.43754 | 113.41061 | 34234 ft | 493 kts | 355° |
| 2026-05-08 03:53 | 27.50632 | 113.41283 | 34238 ft | 493 kts | 354° |
| 2026-05-08 03:53 | 27.57493 | 113.41451 | 34235 ft | 492 kts | 354° |
| 2026-05-08 03:54 | 27.64333 | 113.41587 | 34237 ft | 492 kts | 354° |
| 2026-05-08 03:54 | 27.71188 | 113.41910 | 34238 ft | 495 kts | 358° |
| 2026-05-08 03:55 | 27.78032 | 113.42612 | 34245 ft | 497 kts | 358° |
| 2026-05-08 03:55 | 27.84928 | 113.43319 | 34237 ft | 496 kts | 358° |
| 2026-05-08 03:56 | 27.99201 | 113.44607 | 34244 ft | 496 kts | 357° |
| 2026-05-08 03:56 | 28.12971 | 113.45779 | 34243 ft | 494 kts | 356° |
| 2026-05-08 03:57 | 28.26685 | 113.46722 | 34245 ft | 494 kts | 356° |
| 2026-05-08 03:57 | 28.40400 | 113.47698 | 34245 ft | 492 kts | 356° |
| 2026-05-08 03:58 | 28.51779 | 113.48517 | 34250 ft | 492 kts | 356° |
| 2026-05-08 03:58 | 28.67677 | 113.49647 | 34253 ft | 492 kts | 355° |
| 2026-05-08 03:59 | 28.81350 | 113.50633 | 34254 ft | 492 kts | 355° |
| 2026-05-08 03:59 | 28.92713 | 113.51446 | 34255 ft | 493 kts | 355° |
| 2026-05-08 04:00 | 29.06438 | 113.52433 | 34263 ft | 494 kts | 355° |
| 2026-05-08 04:00 | 29.20182 | 113.53427 | 34266 ft | 493 kts | 355° |
| 2026-05-08 04:01 | 29.33917 | 113.54468 | 34276 ft | 494 kts | 356° |
| 2026-05-08 04:01 | 29.47571 | 113.55676 | 34276 ft | 497 kts | 356° |
| 2026-05-08 04:02 | 29.61370 | 113.56881 | 34315 ft | 497 kts | 356° |
| 2026-05-08 04:02 | 29.75177 | 113.58082 | 34280 ft | 496 kts | 356° |
| 2026-05-08 04:03 | 29.88949 | 113.59285 | 34295 ft | 496 kts | 356° |
| 2026-05-08 04:03 | 30.02577 | 113.63693 | 34283 ft | 523 kts | 15° |
| 2026-05-08 04:03 | 30.09197 | 113.67013 | 34287 ft | 525 kts | 16° |
| 2026-05-08 04:04 | 30.22583 | 113.73794 | 34291 ft | 525 kts | 15° |
| 2026-05-08 04:04 | 30.35985 | 113.80513 | 34321 ft | 524 kts | 15° |
| 2026-05-08 04:05 | 30.49408 | 113.87258 | 34292 ft | 525 kts | 15° |
| 2026-05-08 04:05 | 30.62814 | 113.94019 | 34304 ft | 525 kts | 15° |
| 2026-05-08 04:06 | 30.76202 | 114.00792 | 34305 ft | 528 kts | 18° |
| 2026-05-08 04:06 | 30.89435 | 114.08188 | 34307 ft | 525 kts | 17° |
| 2026-05-08 04:07 | 31.02620 | 114.15331 | 34303 ft | 525 kts | 17° |
| 2026-05-08 04:07 | 31.15819 | 114.22506 | 34302 ft | 521 kts | 18° |
| 2026-05-08 04:08 | 31.28974 | 114.29681 | 34313 ft | 521 kts | 18° |
| 2026-05-08 04:08 | 31.35637 | 114.32678 | 34314 ft | 505 kts | 6° |
| 2026-05-08 04:08 | 31.42479 | 114.33604 | 34315 ft | 490 kts | 355° |
| 2026-05-08 04:09 | 31.56056 | 114.34023 | 34309 ft | 486 kts | 354° |
| 2026-05-08 04:09 | 31.69606 | 114.34380 | 34322 ft | 487 kts | 354° |
| 2026-05-08 04:10 | 31.83069 | 114.34793 | 34332 ft | 488 kts | 355° |
| 2026-05-08 04:10 | 31.96662 | 114.35203 | 34327 ft | 488 kts | 355° |
| 2026-05-08 04:11 | 32.10243 | 114.35611 | 34331 ft | 489 kts | 355° |
| 2026-05-08 04:11 | 32.23894 | 114.36027 | 34330 ft | 490 kts | 355° |
| 2026-05-08 04:12 | 32.37560 | 114.37056 | 34335 ft | 494 kts | 359° |
| 2026-05-08 04:12 | 32.46832 | 114.38000 | 34330 ft | 493 kts | 359° |
| 2026-05-08 04:13 | 32.53650 | 114.38641 | 34347 ft | 493 kts | 359° |
| 2026-05-08 04:13 | 32.60483 | 114.39267 | 34335 ft | 490 kts | 359° |
| 2026-05-08 04:14 | 32.67295 | 114.39891 | 34337 ft | 490 kts | 359° |
| 2026-05-08 04:14 | 32.74044 | 114.40517 | 34334 ft | 490 kts | 359° |
| 2026-05-08 04:15 | 32.80854 | 114.41151 | 34342 ft | 489 kts | 359° |
| 2026-05-08 04:15 | 32.87603 | 114.41783 | 34343 ft | 487 kts | 359° |
| 2026-05-08 04:16 | 32.94365 | 114.42414 | 34339 ft | 487 kts | 359° |
| 2026-05-08 04:16 | 33.01136 | 114.43048 | 34370 ft | 487 kts | 359° |
| 2026-05-08 04:17 | 33.07866 | 114.43680 | 34343 ft | 484 kts | 359° |
| 2026-05-08 04:17 | 33.14566 | 114.44310 | 34344 ft | 484 kts | 358° |
| 2026-05-08 04:18 | 33.21280 | 114.44940 | 34346 ft | 484 kts | 359° |
| 2026-05-08 04:18 | 33.28003 | 114.45573 | 34352 ft | 483 kts | 358° |
| 2026-05-08 04:19 | 33.34683 | 114.46206 | 34352 ft | 482 kts | 358° |
| 2026-05-08 04:19 | 33.41381 | 114.46834 | 34352 ft | 482 kts | 358° |
| 2026-05-08 04:20 | 33.48051 | 114.47460 | 34386 ft | 482 kts | 358° |
| 2026-05-08 04:20 | 33.54725 | 114.48089 | 34355 ft | 478 kts | 359° |
| 2026-05-08 04:21 | 33.61349 | 114.48718 | 34347 ft | 476 kts | 359° |
| 2026-05-08 04:21 | 33.67940 | 114.49339 | 34350 ft | 476 kts | 359° |
| 2026-05-08 04:22 | 33.74562 | 114.49911 | 34355 ft | 475 kts | 355° |
| 2026-05-08 04:22 | 33.81031 | 114.49083 | 34355 ft | 466 kts | 340° |
| 2026-05-08 04:23 | 33.86904 | 114.46100 | 34357 ft | 452 kts | 324° |
| 2026-05-08 04:23 | 33.91940 | 114.41682 | 34359 ft | 446 kts | 319° |
| 2026-05-08 04:24 | 33.96793 | 114.37082 | 34357 ft | 445 kts | 318° |
| 2026-05-08 04:24 | 34.01672 | 114.32430 | 34357 ft | 448 kts | 318° |
| 2026-05-08 04:25 | 34.06570 | 114.27781 | 34356 ft | 448 kts | 318° |
| 2026-05-08 04:25 | 34.11460 | 114.23149 | 34357 ft | 448 kts | 318° |
| 2026-05-08 04:26 | 34.16373 | 114.18490 | 34354 ft | 448 kts | 318° |
| 2026-05-08 04:26 | 34.21258 | 114.13850 | 34355 ft | 448 kts | 318° |
| 2026-05-08 04:27 | 34.26143 | 114.09201 | 34358 ft | 448 kts | 318° |
| 2026-05-08 04:27 | 34.31044 | 114.04533 | 34360 ft | 449 kts | 317° |
| 2026-05-08 04:28 | 34.35957 | 113.99843 | 34352 ft | 450 kts | 317° |
| 2026-05-08 04:28 | 34.40880 | 113.95136 | 34351 ft | 450 kts | 317° |
| 2026-05-08 04:29 | 34.45762 | 113.90462 | 34338 ft | 450 kts | 317° |
| 2026-05-08 04:29 | 34.50864 | 113.85944 | 34398 ft | 456 kts | 324° |
| 2026-05-08 04:30 | 34.53684 | 113.84241 | 34559 ft | 464 kts | 332° |
| 2026-05-08 04:30 | 34.56751 | 113.82971 | 34795 ft | 468 kts | 337° |
| 2026-05-08 04:30 | 34.59889 | 113.81866 | 35108 ft | 465 kts | 338° |
| 2026-05-08 04:30 | 34.63001 | 113.80835 | 35461 ft | 462 kts | 339° |
| 2026-05-08 04:31 | 34.66127 | 113.79822 | 35659 ft | 462 kts | 339° |
| 2026-05-08 04:31 | 34.69194 | 113.78829 | 35812 ft | 462 kts | 339° |
| 2026-05-08 04:31 | 34.72298 | 113.77819 | 35989 ft | 461 kts | 338° |
| 2026-05-08 04:31 | 34.75407 | 113.76799 | 36175 ft | 460 kts | 338° |
| 2026-05-08 04:32 | 34.78493 | 113.75781 | 36340 ft | 459 kts | 338° |
| 2026-05-08 04:32 | 34.81550 | 113.74768 | 36502 ft | 459 kts | 338° |
| 2026-05-08 04:32 | 34.84641 | 113.73741 | 36693 ft | 458 kts | 338° |
| 2026-05-08 04:32 | 34.87715 | 113.72713 | 36901 ft | 455 kts | 338° |
| 2026-05-08 04:33 | 34.90723 | 113.71540 | 37011 ft | 451 kts | 334° |
| 2026-05-08 04:33 | 34.93648 | 113.70225 | 37175 ft | 449 kts | 333° |
| 2026-05-08 04:33 | 34.99501 | 113.67472 | 37231 ft | 453 kts | 333° |
| 2026-05-08 04:34 | 35.05414 | 113.64769 | 37226 ft | 456 kts | 334° |
| 2026-05-08 04:34 | 35.11390 | 113.62119 | 37234 ft | 455 kts | 334° |
| 2026-05-08 04:35 | 35.17297 | 113.59516 | 37227 ft | 453 kts | 334° |
| 2026-05-08 04:35 | 35.23242 | 113.56886 | 37226 ft | 453 kts | 334° |
| 2026-05-08 04:36 | 35.29182 | 113.54249 | 37223 ft | 454 kts | 334° |
| 2026-05-08 04:36 | 35.35088 | 113.51623 | 37240 ft | 454 kts | 334° |
| 2026-05-08 04:37 | 35.41035 | 113.48976 | 37227 ft | 453 kts | 333° |
| 2026-05-08 04:37 | 35.46971 | 113.46333 | 37223 ft | 453 kts | 334° |
| 2026-05-08 04:38 | 35.52911 | 113.43701 | 37228 ft | 453 kts | 334° |
| 2026-05-08 04:38 | 35.58842 | 113.41074 | 37229 ft | 454 kts | 334° |
| 2026-05-08 04:39 | 35.64788 | 113.38437 | 37222 ft | 454 kts | 334° |
| 2026-05-08 04:39 | 35.70715 | 113.35794 | 37235 ft | 453 kts | 334° |
| 2026-05-08 04:40 | 35.76647 | 113.33142 | 37226 ft | 453 kts | 333° |
| 2026-05-08 04:40 | 35.82539 | 113.30505 | 37228 ft | 453 kts | 333° |
| 2026-05-08 04:41 | 35.88469 | 113.27854 | 37225 ft | 452 kts | 333° |
| 2026-05-08 04:41 | 35.94400 | 113.25207 | 37221 ft | 452 kts | 333° |
| 2026-05-08 04:42 | 36.00306 | 113.22566 | 37217 ft | 452 kts | 333° |
| 2026-05-08 04:42 | 36.06181 | 113.19934 | 37211 ft | 452 kts | 333° |
| 2026-05-08 04:43 | 36.12092 | 113.17282 | 37220 ft | 452 kts | 333° |
| 2026-05-08 04:43 | 36.18003 | 113.14626 | 37207 ft | 450 kts | 333° |
| 2026-05-08 04:44 | 36.23929 | 113.12030 | 37210 ft | 454 kts | 337° |
| 2026-05-08 04:44 | 36.30007 | 113.09956 | 37197 ft | 456 kts | 338° |
| 2026-05-08 04:45 | 36.36146 | 113.07960 | 37212 ft | 457 kts | 338° |
| 2026-05-08 04:45 | 36.42297 | 113.05976 | 37192 ft | 456 kts | 338° |
| 2026-05-08 04:46 | 36.47446 | 113.04309 | 37192 ft | 456 kts | 338° |
| 2026-05-08 04:46 | 36.53558 | 113.02320 | 37192 ft | 456 kts | 338° |
| 2026-05-08 04:47 | 36.59706 | 113.00314 | 37190 ft | 456 kts | 338° |
| 2026-05-08 04:47 | 36.65848 | 112.98307 | 37186 ft | 456 kts | 338° |
| 2026-05-08 04:48 | 36.71996 | 112.96295 | 37182 ft | 456 kts | 338° |
| 2026-05-08 04:48 | 36.78128 | 112.94286 | 37178 ft | 456 kts | 338° |
| 2026-05-08 04:49 | 36.84231 | 112.92283 | 37217 ft | 456 kts | 338° |
| 2026-05-08 04:49 | 36.90350 | 112.90265 | 37178 ft | 454 kts | 338° |
| 2026-05-08 04:50 | 36.96467 | 112.88244 | 37179 ft | 454 kts | 338° |
| 2026-05-08 04:50 | 37.02583 | 112.86219 | 37176 ft | 454 kts | 338° |
| 2026-05-08 04:51 | 37.08700 | 112.84195 | 37193 ft | 454 kts | 338° |
| 2026-05-08 04:51 | 37.14801 | 112.82181 | 37168 ft | 452 kts | 338° |
| 2026-05-08 04:52 | 37.20850 | 112.80180 | 37164 ft | 452 kts | 338° |
| 2026-05-08 04:52 | 37.26941 | 112.78161 | 37165 ft | 452 kts | 338° |
| 2026-05-08 04:53 | 37.33032 | 112.76140 | 37178 ft | 452 kts | 338° |
| 2026-05-08 04:53 | 37.39107 | 112.74120 | 37162 ft | 451 kts | 338° |
| 2026-05-08 04:54 | 37.45144 | 112.72109 | 37155 ft | 451 kts | 338° |
| 2026-05-08 04:54 | 37.51215 | 112.70083 | 37153 ft | 451 kts | 338° |
| 2026-05-08 04:55 | 37.57283 | 112.68055 | 37167 ft | 451 kts | 338° |
| 2026-05-08 04:55 | 37.63344 | 112.66028 | 37155 ft | 450 kts | 338° |
| 2026-05-08 04:56 | 37.69408 | 112.64029 | 37156 ft | 450 kts | 338° |
| 2026-05-08 04:56 | 37.75482 | 112.62037 | 37156 ft | 451 kts | 338° |
| 2026-05-08 04:57 | 37.81593 | 112.60389 | 37167 ft | 455 kts | 342° |
| 2026-05-08 04:57 | 37.87844 | 112.58984 | 37158 ft | 455 kts | 342° |
| 2026-05-08 04:58 | 37.94086 | 112.57580 | 37141 ft | 455 kts | 342° |
| 2026-05-08 04:58 | 38.00318 | 112.56145 | 37116 ft | 454 kts | 342° |
| 2026-05-08 04:59 | 38.06506 | 112.54691 | 37119 ft | 454 kts | 342° |
| 2026-05-08 04:59 | 38.12713 | 112.53224 | 37115 ft | 453 kts | 342° |
| 2026-05-08 05:00 | 38.18916 | 112.51757 | 37115 ft | 453 kts | 342° |
| 2026-05-08 05:00 | 38.25125 | 112.50285 | 37152 ft | 453 kts | 342° |
| 2026-05-08 05:01 | 38.31318 | 112.48814 | 37105 ft | 451 kts | 342° |
| 2026-05-08 05:01 | 38.37492 | 112.47347 | 37102 ft | 451 kts | 342° |
| 2026-05-08 05:02 | 38.43625 | 112.45886 | 37099 ft | 451 kts | 342° |
| 2026-05-08 05:02 | 38.49801 | 112.44412 | 37115 ft | 451 kts | 342° |
| 2026-05-08 05:03 | 38.55982 | 112.42934 | 37114 ft | 451 kts | 342° |
| 2026-05-08 05:03 | 38.62165 | 112.41452 | 37113 ft | 451 kts | 342° |
| 2026-05-08 05:04 | 38.68301 | 112.39977 | 37110 ft | 451 kts | 342° |
| 2026-05-08 05:04 | 38.74489 | 112.38493 | 37122 ft | 451 kts | 342° |
| 2026-05-08 05:05 | 38.80659 | 112.37006 | 37113 ft | 451 kts | 342° |
| 2026-05-08 05:05 | 38.86839 | 112.35518 | 37115 ft | 451 kts | 342° |
| 2026-05-08 05:06 | 38.93011 | 112.34029 | 37110 ft | 451 kts | 342° |
| 2026-05-08 05:06 | 38.99193 | 112.32536 | 37115 ft | 451 kts | 342° |
| 2026-05-08 05:07 | 39.05331 | 112.31047 | 37111 ft | 451 kts | 342° |
| 2026-05-08 05:07 | 39.11506 | 112.29547 | 37112 ft | 451 kts | 342° |
| 2026-05-08 05:08 | 39.17676 | 112.28046 | 37111 ft | 451 kts | 343° |
| 2026-05-08 05:08 | 39.23870 | 112.26537 | 37105 ft | 453 kts | 343° |
| 2026-05-08 05:09 | 39.30076 | 112.25023 | 37100 ft | 454 kts | 343° |
| 2026-05-08 05:09 | 39.36242 | 112.23516 | 37095 ft | 454 kts | 343° |
| 2026-05-08 05:10 | 39.45564 | 112.21229 | 37094 ft | 455 kts | 344° |
| 2026-05-08 05:11 | 39.51805 | 112.19701 | 37094 ft | 456 kts | 344° |
| 2026-05-08 05:11 | 39.58047 | 112.18195 | 37100 ft | 456 kts | 344° |
| 2026-05-08 05:12 | 39.64294 | 112.16692 | 37092 ft | 456 kts | 345° |
| 2026-05-08 05:12 | 39.70503 | 112.15191 | 37097 ft | 457 kts | 345° |
| 2026-05-08 05:13 | 39.76758 | 112.13674 | 37095 ft | 457 kts | 345° |
| 2026-05-08 05:13 | 39.83014 | 112.12154 | 37099 ft | 457 kts | 345° |
| 2026-05-08 05:14 | 39.89284 | 112.10628 | 37081 ft | 458 kts | 345° |
| 2026-05-08 05:14 | 39.95558 | 112.09099 | 37079 ft | 458 kts | 345° |
| 2026-05-08 05:15 | 40.01785 | 112.07580 | 37070 ft | 458 kts | 345° |
| 2026-05-08 05:15 | 40.08068 | 112.06036 | 37066 ft | 458 kts | 346° |
| 2026-05-08 05:16 | 40.14332 | 112.04492 | 37060 ft | 458 kts | 346° |
| 2026-05-08 05:16 | 40.20597 | 112.02947 | 37059 ft | 458 kts | 346° |
| 2026-05-08 05:17 | 40.26878 | 112.01402 | 37073 ft | 458 kts | 346° |
| 2026-05-08 05:17 | 40.33107 | 111.99869 | 37047 ft | 457 kts | 346° |
| 2026-05-08 05:18 | 40.39355 | 111.98329 | 37048 ft | 457 kts | 346° |
| 2026-05-08 05:18 | 40.45629 | 111.96861 | 37047 ft | 458 kts | 347° |
| 2026-05-08 05:19 | 40.51910 | 111.95498 | 37055 ft | 456 kts | 347° |
| 2026-05-08 05:19 | 40.58171 | 111.94132 | 37057 ft | 456 kts | 347° |
| 2026-05-08 05:20 | 40.64428 | 111.92731 | 37037 ft | 455 kts | 346° |
| 2026-05-08 05:20 | 40.70610 | 111.90975 | 37047 ft | 453 kts | 343° |
| 2026-05-08 05:21 | 40.76657 | 111.88953 | 37045 ft | 451 kts | 340° |
| 2026-05-08 05:21 | 40.82647 | 111.86448 | 37048 ft | 450 kts | 339° |
| 2026-05-08 05:22 | 40.88614 | 111.83946 | 37047 ft | 450 kts | 339° |
| 2026-05-08 05:22 | 40.94598 | 111.81532 | 37049 ft | 450 kts | 340° |
| 2026-05-08 05:23 | 41.00614 | 111.79146 | 37044 ft | 451 kts | 340° |
| 2026-05-08 05:23 | 41.06632 | 111.76763 | 37035 ft | 451 kts | 340° |
| 2026-05-08 05:24 | 41.12636 | 111.74376 | 37022 ft | 451 kts | 340° |
| 2026-05-08 05:24 | 41.18620 | 111.71990 | 37007 ft | 451 kts | 340° |
| 2026-05-08 05:25 | 41.24628 | 111.69588 | 37004 ft | 451 kts | 340° |
| 2026-05-08 05:25 | 41.30645 | 111.67179 | 36991 ft | 451 kts | 340° |
| 2026-05-08 05:26 | 41.36656 | 111.64767 | 36979 ft | 451 kts | 340° |
| 2026-05-08 05:26 | 41.42664 | 111.62353 | 36977 ft | 450 kts | 340° |
| 2026-05-08 05:27 | 41.48673 | 111.59934 | 36965 ft | 450 kts | 340° |
| 2026-05-08 05:27 | 41.54635 | 111.57527 | 36952 ft | 450 kts | 340° |
| 2026-05-08 05:28 | 41.60638 | 111.55101 | 36940 ft | 450 kts | 340° |
| 2026-05-08 05:28 | 41.66637 | 111.52671 | 36937 ft | 450 kts | 340° |
| 2026-05-08 05:29 | 41.72632 | 111.50238 | 36927 ft | 450 kts | 340° |
| 2026-05-08 05:29 | 41.78621 | 111.47802 | 36932 ft | 450 kts | 340° |
| 2026-05-08 05:30 | 41.84606 | 111.45364 | 36915 ft | 449 kts | 340° |
| 2026-05-08 05:30 | 41.89578 | 111.43335 | 36908 ft | 449 kts | 340° |
| 2026-05-08 05:31 | 41.96526 | 111.40493 | 36898 ft | 449 kts | 340° |
| 2026-05-08 05:31 | 42.01499 | 111.38455 | 36900 ft | 449 kts | 340° |
| 2026-05-08 05:32 | 42.07468 | 111.36005 | 36887 ft | 449 kts | 340° |
| 2026-05-08 05:32 | 42.14460 | 111.33129 | 36879 ft | 449 kts | 340° |
| 2026-05-08 05:33 | 42.19420 | 111.31084 | 36877 ft | 449 kts | 340° |
| 2026-05-08 05:33 | 42.25393 | 111.28625 | 36873 ft | 449 kts | 340° |
| 2026-05-08 05:34 | 42.32339 | 111.25767 | 36859 ft | 449 kts | 340° |
| 2026-05-08 05:34 | 42.37317 | 111.23716 | 36853 ft | 449 kts | 340° |
| 2026-05-08 05:35 | 42.43287 | 111.21249 | 36855 ft | 449 kts | 340° |
| 2026-05-08 05:35 | 42.49257 | 111.18778 | 36845 ft | 449 kts | 340° |
| 2026-05-08 05:36 | 42.55229 | 111.16301 | 36838 ft | 449 kts | 340° |
| 2026-05-08 05:36 | 42.61210 | 111.13815 | 36820 ft | 449 kts | 340° |
| 2026-05-08 05:37 | 42.67153 | 111.11339 | 36823 ft | 450 kts | 340° |
| 2026-05-08 05:37 | 42.73139 | 111.08841 | 36826 ft | 450 kts | 340° |
| 2026-05-08 05:38 | 42.79128 | 111.06337 | 36813 ft | 450 kts | 340° |
| 2026-05-08 05:38 | 42.85126 | 111.03824 | 36822 ft | 450 kts | 340° |
| 2026-05-08 05:39 | 42.91105 | 111.01313 | 36798 ft | 450 kts | 340° |
| 2026-05-08 05:39 | 42.97093 | 110.98794 | 36812 ft | 450 kts | 340° |
| 2026-05-08 05:40 | 43.03040 | 110.96287 | 36810 ft | 450 kts | 340° |
| 2026-05-08 05:40 | 43.09026 | 110.93758 | 36783 ft | 450 kts | 340° |
| 2026-05-08 05:41 | 43.15008 | 110.91227 | 36778 ft | 450 kts | 340° |
| 2026-05-08 05:41 | 43.20713 | 110.87852 | 36774 ft | 445 kts | 327° |
| 2026-05-08 05:42 | 43.25514 | 110.82567 | 36774 ft | 442 kts | 315° |
| 2026-05-08 05:42 | 43.29798 | 110.76620 | 36772 ft | 440 kts | 314° |
| 2026-05-08 05:43 | 43.34027 | 110.70544 | 36764 ft | 439 kts | 313° |
| 2026-05-08 05:43 | 43.38258 | 110.64470 | 36753 ft | 440 kts | 313° |
| 2026-05-08 05:44 | 43.42501 | 110.58400 | 36758 ft | 441 kts | 314° |
| 2026-05-08 05:44 | 43.46754 | 110.52317 | 36749 ft | 441 kts | 314° |
| 2026-05-08 05:45 | 43.51004 | 110.46227 | 36755 ft | 441 kts | 313° |
| 2026-05-08 05:45 | 43.55252 | 110.40124 | 36751 ft | 441 kts | 313° |
| 2026-05-08 05:46 | 43.59477 | 110.34041 | 36749 ft | 442 kts | 313° |
| 2026-05-08 05:46 | 43.63733 | 110.27901 | 36748 ft | 442 kts | 313° |
| 2026-05-08 05:47 | 43.67992 | 110.21741 | 36744 ft | 442 kts | 313° |
| 2026-05-08 05:47 | 43.72239 | 110.15586 | 36746 ft | 443 kts | 313° |
| 2026-05-08 05:48 | 43.76492 | 110.09409 | 36744 ft | 443 kts | 313° |
| 2026-05-08 05:48 | 43.80746 | 110.03216 | 36744 ft | 444 kts | 313° |
| 2026-05-08 05:49 | 43.84966 | 109.97060 | 36744 ft | 444 kts | 313° |
| 2026-05-08 05:49 | 43.89222 | 109.90836 | 36741 ft | 444 kts | 313° |
| 2026-05-08 05:50 | 43.93467 | 109.84616 | 36739 ft | 444 kts | 313° |
| 2026-05-08 05:50 | 43.97718 | 109.78373 | 36738 ft | 445 kts | 313° |
| 2026-05-08 05:51 | 44.01967 | 109.72118 | 36734 ft | 445 kts | 313° |
| 2026-05-08 05:51 | 44.06196 | 109.65880 | 36740 ft | 445 kts | 313° |
| 2026-05-08 05:52 | 44.10451 | 109.59590 | 36795 ft | 447 kts | 313° |
| 2026-05-08 05:52 | 44.14717 | 109.53268 | 37021 ft | 447 kts | 313° |
| 2026-05-08 05:52 | 44.16847 | 109.50106 | 37193 ft | 447 kts | 313° |
| 2026-05-08 05:53 | 44.18968 | 109.46952 | 37303 ft | 446 kts | 313° |
| 2026-05-08 05:53 | 44.21094 | 109.43788 | 37425 ft | 446 kts | 313° |
| 2026-05-08 05:53 | 44.23216 | 109.40625 | 37548 ft | 446 kts | 313° |
| 2026-05-08 05:53 | 44.25311 | 109.37500 | 37656 ft | 446 kts | 313° |
| 2026-05-08 05:54 | 44.27431 | 109.34334 | 37727 ft | 447 kts | 312° |
| 2026-05-08 05:54 | 44.31679 | 109.27980 | 37740 ft | 448 kts | 312° |
| 2026-05-08 05:55 | 44.35929 | 109.21610 | 37736 ft | 448 kts | 312° |
| 2026-05-08 05:55 | 44.40182 | 109.15221 | 37742 ft | 448 kts | 312° |
| 2026-05-08 05:56 | 44.44403 | 109.08866 | 37743 ft | 448 kts | 312° |
| 2026-05-08 05:56 | 44.48645 | 109.02465 | 37743 ft | 448 kts | 312° |
| 2026-05-08 05:57 | 44.52884 | 108.96053 | 37744 ft | 449 kts | 312° |
| 2026-05-08 05:57 | 44.57123 | 108.89626 | 37743 ft | 448 kts | 312° |
| 2026-05-08 05:58 | 44.61358 | 108.83191 | 37741 ft | 448 kts | 312° |
| 2026-05-08 05:58 | 44.65585 | 108.76753 | 37741 ft | 448 kts | 312° |
| 2026-05-08 05:59 | 44.69814 | 108.70298 | 37738 ft | 448 kts | 312° |
| 2026-05-08 05:59 | 44.74014 | 108.63870 | 37733 ft | 448 kts | 312° |
| 2026-05-08 06:00 | 44.78240 | 108.57389 | 37733 ft | 448 kts | 312° |
| 2026-05-08 06:00 | 44.82447 | 108.50923 | 37729 ft | 449 kts | 311° |
| 2026-05-08 06:01 | 44.86672 | 108.44412 | 37734 ft | 450 kts | 311° |
| 2026-05-08 06:01 | 44.90869 | 108.37930 | 37720 ft | 450 kts | 311° |
| 2026-05-08 06:02 | 44.95094 | 108.31392 | 37727 ft | 450 kts | 311° |
| 2026-05-08 06:02 | 44.99303 | 108.24856 | 37717 ft | 450 kts | 311° |
| 2026-05-08 06:03 | 45.03489 | 108.18338 | 37718 ft | 450 kts | 311° |
| 2026-05-08 06:03 | 45.07692 | 108.11781 | 37718 ft | 450 kts | 311° |
| 2026-05-08 06:04 | 45.11902 | 108.05198 | 37722 ft | 450 kts | 311° |
| 2026-05-08 06:04 | 45.16099 | 107.98619 | 37722 ft | 450 kts | 311° |
| 2026-05-08 06:05 | 45.20302 | 107.92016 | 37727 ft | 451 kts | 311° |
| 2026-05-08 06:05 | 45.24477 | 107.85442 | 37733 ft | 451 kts | 311° |
| 2026-05-08 06:06 | 45.28676 | 107.78813 | 37731 ft | 451 kts | 311° |
| 2026-05-08 06:06 | 45.32868 | 107.72180 | 37739 ft | 451 kts | 311° |
| 2026-05-08 06:07 | 45.37056 | 107.65538 | 37744 ft | 451 kts | 311° |
| 2026-05-08 06:07 | 45.41252 | 107.58866 | 37760 ft | 452 kts | 311° |
| 2026-05-08 06:08 | 45.45428 | 107.52209 | 37755 ft | 453 kts | 311° |
| 2026-05-08 06:08 | 45.49632 | 107.45493 | 37760 ft | 453 kts | 311° |
| 2026-05-08 06:09 | 45.53830 | 107.38772 | 37754 ft | 453 kts | 311° |
| 2026-05-08 06:09 | 45.58004 | 107.32070 | 37770 ft | 454 kts | 310° |
| 2026-05-08 06:10 | 45.62202 | 107.25314 | 37768 ft | 454 kts | 310° |
| 2026-05-08 06:10 | 45.66375 | 107.18582 | 37770 ft | 454 kts | 310° |
| 2026-05-08 06:11 | 45.70562 | 107.11809 | 37764 ft | 454 kts | 310° |
| 2026-05-08 06:11 | 45.74751 | 107.05018 | 37781 ft | 455 kts | 310° |
| 2026-05-08 06:12 | 45.78936 | 106.98218 | 37780 ft | 455 kts | 310° |
| 2026-05-08 06:12 | 45.83102 | 106.91432 | 37764 ft | 455 kts | 310° |
| 2026-05-08 06:13 | 45.87278 | 106.84611 | 37764 ft | 455 kts | 310° |
| 2026-05-08 06:13 | 45.91454 | 106.77779 | 37779 ft | 455 kts | 310° |
| 2026-05-08 06:14 | 45.95610 | 106.70958 | 37766 ft | 455 kts | 310° |
| 2026-05-08 06:14 | 45.99778 | 106.64102 | 37774 ft | 456 kts | 310° |
| 2026-05-08 06:15 | 46.03943 | 106.57233 | 37785 ft | 455 kts | 310° |
| 2026-05-08 06:15 | 46.08109 | 106.50346 | 37769 ft | 455 kts | 310° |
| 2026-05-08 06:16 | 46.12250 | 106.43483 | 37778 ft | 456 kts | 310° |
| 2026-05-08 06:16 | 46.16412 | 106.36570 | 37803 ft | 456 kts | 310° |
| 2026-05-08 06:17 | 46.22657 | 106.26162 | 37797 ft | 456 kts | 310° |
| 2026-05-08 06:17 | 46.26816 | 106.19207 | 37793 ft | 457 kts | 310° |
| 2026-05-08 06:18 | 46.30944 | 106.12289 | 37798 ft | 458 kts | 310° |
| 2026-05-08 06:18 | 46.35111 | 106.05288 | 37804 ft | 458 kts | 310° |
| 2026-05-08 06:19 | 46.39255 | 105.98307 | 37804 ft | 458 kts | 310° |
| 2026-05-08 06:19 | 46.43408 | 105.91293 | 37802 ft | 458 kts | 309° |
| 2026-05-08 06:20 | 46.47528 | 105.84322 | 37814 ft | 458 kts | 309° |
| 2026-05-08 06:20 | 46.51666 | 105.77293 | 37818 ft | 458 kts | 310° |
| 2026-05-08 06:21 | 46.55812 | 105.70231 | 37816 ft | 459 kts | 310° |
| 2026-05-08 06:21 | 46.59261 | 105.64346 | 37816 ft | 459 kts | 309° |
| 2026-05-08 06:22 | 46.63396 | 105.57274 | 37818 ft | 459 kts | 309° |
| 2026-05-08 06:22 | 46.67537 | 105.50173 | 37820 ft | 460 kts | 309° |
| 2026-05-08 06:23 | 46.71683 | 105.43044 | 37822 ft | 460 kts | 309° |
| 2026-05-08 06:23 | 46.75796 | 105.35955 | 37819 ft | 460 kts | 309° |
| 2026-05-08 06:24 | 46.79927 | 105.28814 | 37830 ft | 461 kts | 309° |
| 2026-05-08 06:24 | 46.84047 | 105.21675 | 37832 ft | 462 kts | 309° |
| 2026-05-08 06:25 | 46.88188 | 105.14480 | 37829 ft | 463 kts | 309° |
| 2026-05-08 06:25 | 46.92328 | 105.07271 | 37840 ft | 463 kts | 309° |
| 2026-05-08 06:26 | 46.96472 | 105.00034 | 37838 ft | 463 kts | 309° |
| 2026-05-08 06:26 | 47.00587 | 104.92828 | 37834 ft | 463 kts | 309° |
| 2026-05-08 06:27 | 47.04714 | 104.85579 | 37847 ft | 463 kts | 310° |
| 2026-05-08 06:27 | 47.08856 | 104.78287 | 37854 ft | 465 kts | 310° |
| 2026-05-08 06:28 | 47.12999 | 104.70977 | 37849 ft | 465 kts | 310° |
| 2026-05-08 06:28 | 47.17133 | 104.63661 | 37856 ft | 465 kts | 309° |
| 2026-05-08 06:29 | 47.21263 | 104.56331 | 37859 ft | 465 kts | 310° |
| 2026-05-08 06:29 | 47.25360 | 104.49040 | 37866 ft | 464 kts | 309° |
| 2026-05-08 06:30 | 47.29471 | 104.41706 | 37868 ft | 464 kts | 309° |
| 2026-05-08 06:30 | 47.33576 | 104.34363 | 37872 ft | 464 kts | 309° |
| 2026-05-08 06:31 | 47.37660 | 104.27036 | 37863 ft | 465 kts | 309° |
| 2026-05-08 06:31 | 47.41771 | 104.19641 | 37863 ft | 465 kts | 309° |
| 2026-05-08 06:32 | 47.45880 | 104.12236 | 37864 ft | 465 kts | 309° |
| 2026-05-08 06:32 | 47.49958 | 104.04859 | 37863 ft | 465 kts | 309° |
| 2026-05-08 06:33 | 47.54053 | 103.97430 | 37857 ft | 465 kts | 309° |
| 2026-05-08 06:33 | 47.58146 | 103.89987 | 37860 ft | 465 kts | 309° |
| 2026-05-08 06:34 | 47.62233 | 103.82535 | 37854 ft | 466 kts | 309° |
| 2026-05-08 06:34 | 47.66329 | 103.75048 | 37867 ft | 466 kts | 309° |
| 2026-05-08 06:35 | 47.70384 | 103.67615 | 37868 ft | 467 kts | 309° |
| 2026-05-08 06:35 | 47.74471 | 103.60101 | 37862 ft | 466 kts | 309° |
| 2026-05-08 06:36 | 47.78530 | 103.52616 | 37858 ft | 466 kts | 309° |
| 2026-05-08 06:36 | 47.82604 | 103.45085 | 37861 ft | 467 kts | 309° |
| 2026-05-08 06:37 | 47.86677 | 103.37538 | 37863 ft | 467 kts | 309° |
| 2026-05-08 06:37 | 47.90735 | 103.29995 | 37868 ft | 464 kts | 309° |
| 2026-05-08 06:38 | 47.94757 | 103.22501 | 37877 ft | 464 kts | 309° |
| 2026-05-08 06:38 | 47.98780 | 103.14975 | 37869 ft | 463 kts | 309° |
| 2026-05-08 06:39 | 48.02790 | 103.07452 | 37886 ft | 463 kts | 309° |
| 2026-05-08 06:39 | 48.06781 | 102.99948 | 37866 ft | 463 kts | 309° |
| 2026-05-08 06:40 | 48.10790 | 102.92390 | 37884 ft | 463 kts | 309° |
| 2026-05-08 06:40 | 48.14800 | 102.84807 | 37888 ft | 464 kts | 309° |
| 2026-05-08 06:41 | 48.18782 | 102.77256 | 37871 ft | 464 kts | 309° |
| 2026-05-08 06:41 | 48.22779 | 102.69657 | 37895 ft | 464 kts | 309° |
| 2026-05-08 06:42 | 48.26776 | 102.62036 | 37880 ft | 464 kts | 309° |
| 2026-05-08 06:42 | 48.30770 | 102.54399 | 37874 ft | 464 kts | 309° |
| 2026-05-08 06:43 | 48.34756 | 102.46755 | 37900 ft | 464 kts | 309° |
| 2026-05-08 06:43 | 48.38714 | 102.39144 | 37894 ft | 464 kts | 309° |
| 2026-05-08 06:44 | 48.42679 | 102.31497 | 37889 ft | 464 kts | 309° |
| 2026-05-08 06:44 | 48.46647 | 102.23823 | 37895 ft | 464 kts | 309° |
| 2026-05-08 06:45 | 48.50611 | 102.16134 | 37891 ft | 464 kts | 309° |
| 2026-05-08 06:45 | 48.54576 | 102.08420 | 37891 ft | 464 kts | 309° |
| 2026-05-08 06:46 | 48.58508 | 102.00750 | 37904 ft | 464 kts | 309° |
| 2026-05-08 06:46 | 48.62465 | 101.93011 | 37887 ft | 464 kts | 309° |
| 2026-05-08 06:47 | 48.66402 | 101.85288 | 37904 ft | 464 kts | 309° |
| 2026-05-08 06:47 | 48.70337 | 101.77544 | 37886 ft | 464 kts | 309° |
| 2026-05-08 06:48 | 48.74271 | 101.69783 | 37906 ft | 464 kts | 309° |
| 2026-05-08 06:48 | 48.78197 | 101.62015 | 37902 ft | 464 kts | 309° |
| 2026-05-08 06:49 | 48.82116 | 101.54232 | 37906 ft | 464 kts | 309° |
| 2026-05-08 06:49 | 48.86024 | 101.46450 | 37913 ft | 464 kts | 309° |
| 2026-05-08 06:50 | 48.89928 | 101.38652 | 37909 ft | 463 kts | 309° |
| 2026-05-08 06:50 | 48.93816 | 101.30866 | 37913 ft | 462 kts | 309° |
| 2026-05-08 06:51 | 48.97677 | 101.23113 | 37924 ft | 462 kts | 309° |
| 2026-05-08 06:51 | 49.01536 | 101.15341 | 37902 ft | 462 kts | 309° |
| 2026-05-08 06:52 | 49.05408 | 101.07522 | 37915 ft | 462 kts | 309° |
| 2026-05-08 06:52 | 49.09281 | 100.99667 | 37913 ft | 462 kts | 309° |
| 2026-05-08 06:53 | 49.13139 | 100.91830 | 37905 ft | 462 kts | 309° |
| 2026-05-08 06:53 | 49.16969 | 100.84028 | 37916 ft | 462 kts | 309° |
| 2026-05-08 06:54 | 49.20820 | 100.76158 | 37914 ft | 462 kts | 309° |
| 2026-05-08 06:54 | 49.24671 | 100.68264 | 37908 ft | 462 kts | 309° |
| 2026-05-08 06:55 | 49.28497 | 100.60398 | 37921 ft | 459 kts | 309° |
| 2026-05-08 06:55 | 49.32307 | 100.52540 | 37923 ft | 459 kts | 309° |
| 2026-05-08 06:56 | 49.36095 | 100.44708 | 37928 ft | 459 kts | 309° |
| 2026-05-08 06:56 | 49.39898 | 100.36819 | 37934 ft | 459 kts | 309° |
| 2026-05-08 06:57 | 49.43694 | 100.28923 | 37921 ft | 459 kts | 309° |
| 2026-05-08 06:57 | 49.47481 | 100.21019 | 37932 ft | 457 kts | 309° |
| 2026-05-08 06:58 | 49.51223 | 100.13189 | 37934 ft | 457 kts | 309° |
| 2026-05-08 06:58 | 49.54990 | 100.05284 | 37942 ft | 458 kts | 309° |
| 2026-05-08 06:59 | 49.58756 | 99.97357 | 37937 ft | 459 kts | 309° |
| 2026-05-08 06:59 | 49.62528 | 99.89394 | 37929 ft | 460 kts | 309° |
| 2026-05-08 07:00 | 49.66293 | 99.81420 | 37944 ft | 459 kts | 309° |
| 2026-05-08 07:00 | 49.70030 | 99.73481 | 37956 ft | 459 kts | 309° |
| 2026-05-08 07:01 | 49.73761 | 99.65531 | 37951 ft | 459 kts | 309° |
| 2026-05-08 07:01 | 49.77506 | 99.57529 | 37958 ft | 460 kts | 309° |
| 2026-05-08 07:02 | 49.81251 | 99.49503 | 37962 ft | 459 kts | 309° |
| 2026-05-08 07:02 | 49.84946 | 99.41559 | 37961 ft | 456 kts | 309° |
| 2026-05-08 07:03 | 49.88648 | 99.33575 | 37963 ft | 456 kts | 309° |
| 2026-05-08 07:03 | 49.92341 | 99.25589 | 37964 ft | 456 kts | 309° |
| 2026-05-08 07:04 | 49.96038 | 99.17569 | 37962 ft | 456 kts | 309° |
| 2026-05-08 07:04 | 49.99700 | 99.09601 | 37954 ft | 456 kts | 309° |
| 2026-05-08 07:05 | 50.03375 | 99.01581 | 37965 ft | 455 kts | 309° |
| 2026-05-08 07:05 | 50.07041 | 98.93557 | 37965 ft | 455 kts | 309° |
| 2026-05-08 07:06 | 50.10700 | 98.85523 | 37971 ft | 455 kts | 309° |
| 2026-05-08 07:06 | 50.14358 | 98.77465 | 37972 ft | 455 kts | 309° |
| 2026-05-08 07:07 | 50.18011 | 98.69395 | 37970 ft | 455 kts | 309° |
| 2026-05-08 07:07 | 50.21636 | 98.61363 | 37982 ft | 455 kts | 309° |
| 2026-05-08 07:08 | 50.25276 | 98.53273 | 37983 ft | 455 kts | 309° |
| 2026-05-08 07:08 | 50.28918 | 98.45154 | 37988 ft | 455 kts | 309° |
| 2026-05-08 07:09 | 50.32541 | 98.37048 | 37994 ft | 455 kts | 308° |
| 2026-05-08 07:09 | 50.36167 | 98.28912 | 38002 ft | 454 kts | 308° |
| 2026-05-08 07:10 | 50.39743 | 98.20851 | 38000 ft | 453 kts | 308° |
| 2026-05-08 07:10 | 50.42742 | 98.14056 | 38007 ft | 452 kts | 308° |
| 2026-05-08 07:11 | 50.46903 | 98.04605 | 38004 ft | 453 kts | 308° |
| 2026-05-08 07:11 | 50.49874 | 97.97838 | 37998 ft | 453 kts | 308° |
| 2026-05-08 07:12 | 50.53446 | 97.89684 | 37988 ft | 452 kts | 308° |
| 2026-05-08 07:12 | 50.56993 | 97.81560 | 37978 ft | 449 kts | 308° |
| 2026-05-08 07:13 | 50.60515 | 97.73459 | 37994 ft | 448 kts | 308° |
| 2026-05-08 07:13 | 50.64044 | 97.65345 | 37982 ft | 448 kts | 308° |
| 2026-05-08 07:14 | 50.67533 | 97.57273 | 37985 ft | 449 kts | 308° |
| 2026-05-08 07:14 | 50.71043 | 97.49121 | 37982 ft | 449 kts | 308° |
| 2026-05-08 07:15 | 50.74549 | 97.40962 | 37986 ft | 447 kts | 308° |
| 2026-05-08 07:15 | 50.78035 | 97.32825 | 37985 ft | 446 kts | 308° |
| 2026-05-08 07:16 | 50.81515 | 97.24679 | 37979 ft | 447 kts | 308° |
| 2026-05-08 07:16 | 50.84969 | 97.16572 | 37981 ft | 446 kts | 308° |
| 2026-05-08 07:17 | 50.88436 | 97.08406 | 37982 ft | 447 kts | 308° |
| 2026-05-08 07:17 | 50.91894 | 97.00234 | 37980 ft | 446 kts | 307° |
| 2026-05-08 07:18 | 50.95338 | 96.92069 | 37986 ft | 445 kts | 307° |
| 2026-05-08 07:18 | 50.98777 | 96.83890 | 37986 ft | 445 kts | 307° |
| 2026-05-08 07:19 | 51.02193 | 96.75742 | 37982 ft | 445 kts | 307° |
| 2026-05-08 07:19 | 51.05629 | 96.67519 | 37983 ft | 445 kts | 307° |
| 2026-05-08 07:20 | 51.09050 | 96.59311 | 37980 ft | 445 kts | 307° |
| 2026-05-08 07:20 | 51.12475 | 96.51062 | 37991 ft | 446 kts | 307° |
| 2026-05-08 07:21 | 51.15885 | 96.42825 | 37984 ft | 445 kts | 307° |
| 2026-05-08 07:21 | 51.19293 | 96.34568 | 37988 ft | 446 kts | 307° |
| 2026-05-08 07:22 | 51.22678 | 96.26339 | 37989 ft | 446 kts | 307° |
| 2026-05-08 07:22 | 51.26076 | 96.18053 | 37979 ft | 446 kts | 307° |
| 2026-05-08 07:23 | 51.29471 | 96.09745 | 37992 ft | 446 kts | 306° |
| 2026-05-08 07:23 | 51.32857 | 96.01433 | 37993 ft | 446 kts | 306° |
| 2026-05-08 07:24 | 51.36236 | 95.93113 | 37989 ft | 446 kts | 306° |
| 2026-05-08 07:24 | 51.39570 | 95.84878 | 37992 ft | 446 kts | 306° |
| 2026-05-08 07:25 | 51.42944 | 95.76516 | 37988 ft | 446 kts | 306° |
| 2026-05-08 07:26 | 51.47995 | 95.63950 | 37989 ft | 447 kts | 306° |
| 2026-05-08 07:26 | 51.51336 | 95.55604 | 37984 ft | 447 kts | 306° |
| 2026-05-08 07:27 | 51.54693 | 95.47189 | 37986 ft | 447 kts | 306° |
| 2026-05-08 07:27 | 51.58041 | 95.38768 | 37983 ft | 447 kts | 306° |
| 2026-05-08 07:28 | 51.61365 | 95.30381 | 37970 ft | 447 kts | 306° |
| 2026-05-08 07:28 | 51.64705 | 95.21929 | 37985 ft | 447 kts | 305° |
| 2026-05-08 07:29 | 51.68046 | 95.13444 | 37984 ft | 447 kts | 305° |
| 2026-05-08 07:29 | 51.71380 | 95.04948 | 37989 ft | 447 kts | 305° |
| 2026-05-08 07:30 | 51.74695 | 94.96475 | 37987 ft | 447 kts | 305° |
| 2026-05-08 07:30 | 51.77995 | 94.88010 | 37982 ft | 447 kts | 305° |
| 2026-05-08 07:31 | 51.81303 | 94.79497 | 37987 ft | 447 kts | 305° |
| 2026-05-08 07:31 | 51.84608 | 94.70964 | 37987 ft | 447 kts | 305° |
| 2026-05-08 07:32 | 51.87904 | 94.62424 | 37988 ft | 447 kts | 304° |
| 2026-05-08 07:32 | 51.91194 | 94.53871 | 37990 ft | 447 kts | 304° |
| 2026-05-08 07:33 | 51.94459 | 94.45355 | 37985 ft | 447 kts | 304° |
| 2026-05-08 07:33 | 51.97738 | 94.36773 | 37994 ft | 448 kts | 304° |
| 2026-05-08 07:34 | 52.01015 | 94.28168 | 37983 ft | 447 kts | 304° |
| 2026-05-08 07:34 | 52.04277 | 94.19575 | 37985 ft | 447 kts | 304° |
| 2026-05-08 07:35 | 52.07541 | 94.10950 | 37986 ft | 447 kts | 304° |
| 2026-05-08 07:35 | 52.10796 | 94.02317 | 37989 ft | 447 kts | 304° |
| 2026-05-08 07:36 | 52.14081 | 93.93740 | 37992 ft | 446 kts | 308° |
| 2026-05-08 07:36 | 52.18199 | 93.86320 | 37984 ft | 444 kts | 318° |
| 2026-05-08 07:37 | 52.22795 | 93.79542 | 38010 ft | 446 kts | 320° |
| 2026-05-08 07:37 | 52.27457 | 93.72803 | 37979 ft | 446 kts | 320° |
| 2026-05-08 07:38 | 52.32063 | 93.66114 | 37981 ft | 446 kts | 319° |
| 2026-05-08 07:38 | 52.36696 | 93.59339 | 37983 ft | 446 kts | 319° |
| 2026-05-08 07:39 | 52.41311 | 93.52560 | 37982 ft | 446 kts | 319° |
| 2026-05-08 07:39 | 52.45934 | 93.45749 | 37977 ft | 446 kts | 319° |
| 2026-05-08 07:40 | 52.50525 | 93.38965 | 37983 ft | 446 kts | 319° |
| 2026-05-08 07:40 | 52.55125 | 93.32150 | 37985 ft | 445 kts | 319° |
| 2026-05-08 07:41 | 52.59732 | 93.25304 | 37981 ft | 445 kts | 319° |
| 2026-05-08 07:41 | 52.64307 | 93.18484 | 37985 ft | 445 kts | 319° |
| 2026-05-08 07:42 | 52.68901 | 93.11618 | 37982 ft | 445 kts | 319° |
| 2026-05-08 07:42 | 52.73492 | 93.04736 | 37991 ft | 445 kts | 318° |
| 2026-05-08 07:43 | 52.78071 | 92.97852 | 37981 ft | 444 kts | 318° |
| 2026-05-08 07:43 | 52.82599 | 92.91024 | 37980 ft | 443 kts | 318° |
| 2026-05-08 07:44 | 52.87147 | 92.84142 | 37974 ft | 443 kts | 318° |
| 2026-05-08 07:44 | 52.91710 | 92.77219 | 37971 ft | 443 kts | 318° |
| 2026-05-08 07:45 | 52.96237 | 92.70330 | 37972 ft | 443 kts | 318° |
| 2026-05-08 07:45 | 53.00786 | 92.63389 | 37970 ft | 443 kts | 317° |
| 2026-05-08 07:46 | 53.05317 | 92.56453 | 37969 ft | 443 kts | 317° |
| 2026-05-08 07:46 | 53.09843 | 92.49505 | 37970 ft | 443 kts | 317° |
| 2026-05-08 07:47 | 53.14355 | 92.42555 | 37974 ft | 443 kts | 317° |
| 2026-05-08 07:47 | 53.18878 | 92.35569 | 37974 ft | 443 kts | 317° |
| 2026-05-08 07:48 | 53.23404 | 92.28558 | 37986 ft | 443 kts | 317° |
| 2026-05-08 07:48 | 53.27900 | 92.21573 | 37971 ft | 444 kts | 317° |
| 2026-05-08 07:49 | 53.32420 | 92.14526 | 37968 ft | 444 kts | 317° |
| 2026-05-08 07:49 | 53.36935 | 92.07469 | 37971 ft | 444 kts | 316° |
| 2026-05-08 07:50 | 53.41399 | 92.00304 | 37972 ft | 444 kts | 314° |
| 2026-05-08 07:50 | 53.45573 | 91.92662 | 37972 ft | 444 kts | 312° |
| 2026-05-08 07:51 | 53.49679 | 91.85000 | 37982 ft | 444 kts | 312° |
| 2026-05-08 07:51 | 53.53859 | 91.77329 | 37972 ft | 444 kts | 312° |
| 2026-05-08 07:52 | 53.58034 | 91.69613 | 37968 ft | 444 kts | 312° |
| 2026-05-08 07:52 | 53.62162 | 91.61959 | 37968 ft | 444 kts | 312° |
| 2026-05-08 07:53 | 53.66331 | 91.54217 | 37951 ft | 444 kts | 312° |
| 2026-05-08 07:53 | 53.70489 | 91.46478 | 37966 ft | 444 kts | 311° |
| 2026-05-08 07:54 | 53.74558 | 91.38706 | 37973 ft | 443 kts | 307° |
| 2026-05-08 07:54 | 53.78225 | 91.30308 | 37967 ft | 444 kts | 306° |
| 2026-05-08 07:55 | 53.81828 | 91.21809 | 37967 ft | 444 kts | 306° |
| 2026-05-08 07:55 | 53.85396 | 91.13330 | 37966 ft | 444 kts | 306° |
| 2026-05-08 07:56 | 53.88974 | 91.04813 | 37967 ft | 444 kts | 306° |
| 2026-05-08 07:56 | 53.92558 | 90.96263 | 37965 ft | 444 kts | 305° |
| 2026-05-08 07:57 | 53.96116 | 90.87747 | 37961 ft | 444 kts | 305° |
| 2026-05-08 07:57 | 53.99085 | 90.80619 | 37953 ft | 443 kts | 305° |
| 2026-05-08 07:58 | 54.02654 | 90.72024 | 37947 ft | 443 kts | 305° |
| 2026-05-08 07:58 | 54.06209 | 90.63434 | 37950 ft | 444 kts | 305° |
| 2026-05-08 07:59 | 54.09758 | 90.54825 | 37951 ft | 443 kts | 305° |
| 2026-05-08 07:59 | 54.13843 | 90.44883 | 37950 ft | 443 kts | 304° |
| 2026-05-08 08:00 | 54.16776 | 90.37721 | 37948 ft | 443 kts | 304° |
| 2026-05-08 08:00 | 54.20281 | 90.29133 | 37952 ft | 442 kts | 304° |
| 2026-05-08 08:01 | 54.23794 | 90.20495 | 37951 ft | 442 kts | 304° |
| 2026-05-08 08:01 | 54.27298 | 90.11849 | 37947 ft | 443 kts | 304° |
| 2026-05-08 08:02 | 54.30804 | 90.03168 | 37941 ft | 443 kts | 304° |
| 2026-05-08 08:02 | 54.34302 | 89.94480 | 37947 ft | 443 kts | 304° |
| 2026-05-08 08:03 | 54.37799 | 89.85764 | 37942 ft | 442 kts | 304° |
| 2026-05-08 08:03 | 54.41276 | 89.77063 | 37942 ft | 442 kts | 304° |
| 2026-05-08 08:04 | 54.44761 | 89.68313 | 37936 ft | 442 kts | 304° |
| 2026-05-08 08:04 | 54.48226 | 89.59580 | 37941 ft | 442 kts | 304° |
| 2026-05-08 08:05 | 54.51670 | 89.50873 | 37949 ft | 442 kts | 304° |
| 2026-05-08 08:05 | 54.55127 | 89.42103 | 37936 ft | 443 kts | 304° |
| 2026-05-08 08:06 | 54.58587 | 89.33296 | 37944 ft | 443 kts | 303° |
| 2026-05-08 08:06 | 54.62041 | 89.24470 | 37944 ft | 443 kts | 303° |
| 2026-05-08 08:07 | 54.65453 | 89.15720 | 37936 ft | 443 kts | 303° |
| 2026-05-08 08:07 | 54.68893 | 89.06869 | 37946 ft | 443 kts | 303° |
| 2026-05-08 08:08 | 54.72325 | 88.98005 | 37949 ft | 443 kts | 303° |
| 2026-05-08 08:08 | 54.75743 | 88.89148 | 37963 ft | 443 kts | 303° |
| 2026-05-08 08:09 | 54.79141 | 88.80308 | 37933 ft | 444 kts | 303° |
| 2026-05-08 08:09 | 54.82561 | 88.71385 | 37934 ft | 444 kts | 303° |
| 2026-05-08 08:10 | 54.85984 | 88.62446 | 37958 ft | 444 kts | 303° |
| 2026-05-08 08:10 | 54.89399 | 88.53491 | 37938 ft | 444 kts | 303° |
| 2026-05-08 08:11 | 54.92782 | 88.44591 | 37940 ft | 444 kts | 303° |
| 2026-05-08 08:11 | 54.96179 | 88.35620 | 37944 ft | 443 kts | 302° |
| 2026-05-08 08:12 | 54.99573 | 88.26621 | 37969 ft | 445 kts | 302° |
| 2026-05-08 08:12 | 55.02953 | 88.17630 | 37947 ft | 445 kts | 302° |
| 2026-05-08 08:13 | 55.06338 | 88.08595 | 37940 ft | 445 kts | 302° |
| 2026-05-08 08:13 | 55.09725 | 87.99520 | 37944 ft | 445 kts | 302° |
| 2026-05-08 08:14 | 55.13097 | 87.90449 | 37945 ft | 445 kts | 302° |
| 2026-05-08 08:14 | 55.16471 | 87.81342 | 37943 ft | 445 kts | 302° |
| 2026-05-08 08:15 | 55.19823 | 87.72276 | 37933 ft | 446 kts | 302° |
| 2026-05-08 08:15 | 55.23173 | 87.63120 | 37932 ft | 447 kts | 302° |
| 2026-05-08 08:16 | 55.26521 | 87.53934 | 37938 ft | 447 kts | 302° |
| 2026-05-08 08:16 | 55.29865 | 87.44736 | 37937 ft | 447 kts | 302° |
| 2026-05-08 08:17 | 55.33187 | 87.35572 | 37933 ft | 447 kts | 302° |
| 2026-05-08 08:17 | 55.36505 | 87.26384 | 37929 ft | 447 kts | 302° |
| 2026-05-08 08:18 | 55.39830 | 87.17141 | 37929 ft | 447 kts | 301° |
| 2026-05-08 08:18 | 55.43159 | 87.07852 | 37930 ft | 448 kts | 301° |
| 2026-05-08 08:19 | 55.46487 | 86.98532 | 37924 ft | 448 kts | 301° |
| 2026-05-08 08:19 | 55.49786 | 86.89256 | 37932 ft | 449 kts | 301° |
| 2026-05-08 08:20 | 55.53100 | 86.79903 | 37923 ft | 449 kts | 301° |